Time;durP1;ratioP1;P1;durP2;ratioP2;P2;SDS_P1;SDS_P2;PMS_P1;PMS_P2;Temp;Humidity;BMP_temperature;BMP_pressure;BME280_temperature;BME280_humidity;BME280_pressure;Samples;Min_cycle;Max_cycle;Signal;HPM_P1;HPM_P2
2022/11/10 00:01:06;;;;;;;6.88;2.85;;;;;;;;;;4992245;28;20198;-68
2022/11/10 00:03:34;;;;;;;8.13;3.47;;;;;;;;;;5008629;28;20054;-71
2022/11/10 00:06:05;;;;;;;7.63;3.03;;;;;;;;;;4992002;28;20065;-70
2022/11/10 00:08:32;;;;;;;6.20;3.63;;;;;;;;;;5007834;28;20046;-69
2022/11/10 00:11:05;;;;;;;6.05;3.05;;;;;;;;;;4992258;28;20093;-68
2022/11/10 00:13:34;;;;;;;7.75;3.05;;;;;;;;;;5008104;28;20054;-71
2022/11/10 00:18:48;;;;;;;4.22;2.97;;;;;;;;;;4991840;28;20050;-70
2022/11/10 00:21:15;;;;;;;11.55;3.70;;;;;;;;;;4982915;28;20047;-69
2022/11/10 00:23:42;;;;;;;6.18;2.85;;;;;;;;;;4956681;28;20133;-69
2022/11/10 00:26:14;;;;;;;7.03;2.90;;;;;;;;;;4956604;28;20497;-68
2022/11/10 00:28:41;;;;;;;5.10;2.70;;;;;;;;;;4965027;28;20046;-69
2022/11/10 00:31:08;;;;;;;10.07;3.42;;;;;;;;;;5007803;28;20049;-69
2022/11/10 00:33:42;;;;;;;8.30;3.05;;;;;;;;;;5007893;28;20125;-69
2022/11/10 00:36:09;;;;;;;7.38;3.28;;;;;;;;;;4991368;28;20050;-69
2022/11/10 00:38:35;;;;;;;9.57;3.60;;;;;;;;;;5007356;28;20097;-69
2022/11/10 00:41:02;;;;;;;10.07;3.28;;;;;;;;;;4992545;28;20664;-70
2022/11/10 00:43:29;;;;;;;7.22;2.67;;;;;;;;;;5007831;28;20120;-69
2022/11/10 00:45:56;;;;;;;4.88;2.42;;;;;;;;;;4991378;28;20046;-70
2022/11/10 00:48:23;;;;;;;8.88;3.15;;;;;;;;;;4990926;28;20046;-68
2022/11/10 00:50:50;;;;;;;6.30;3.13;;;;;;;;;;4975260;28;20054;-67
2022/11/10 00:53:17;;;;;;;6.13;2.42;;;;;;;;;;5007927;28;20116;-69
2022/11/10 00:55:44;;;;;;;7.28;2.60;;;;;;;;;;4991230;28;20065;-69
2022/11/10 00:58:10;;;;;;;5.68;2.40;;;;;;;;;;5007455;28;20120;-70
2022/11/10 01:00:37;;;;;;;8.20;3.08;;;;;;;;;;4992855;28;20054;-69
2022/11/10 01:03:03;;;;;;;12.13;2.92;;;;;;;;;;4992871;28;20575;-68
2022/11/10 01:05:30;;;;;;;6.75;2.80;;;;;;;;;;4991148;28;20186;-68
2022/11/10 01:07:58;;;;;;;6.25;3.47;;;;;;;;;;5006910;28;20043;-69
2022/11/10 01:10:25;;;;;;;7.80;2.75;;;;;;;;;;4990885;28;20054;-69
2022/11/10 01:12:52;;;;;;;7.35;2.67;;;;;;;;;;5007084;28;20093;-68
2022/11/10 01:15:19;;;;;;;7.30;2.70;;;;;;;;;;5007124;28;20109;-68
2022/11/10 01:17:54;;;;;;;6.97;2.30;;;;;;;;;;4990428;28;20113;-68
2022/11/10 01:20:20;;;;;;;11.38;3.25;;;;;;;;;;4990983;28;20105;-68
2022/11/10 01:22:47;;;;;;;8.30;2.58;;;;;;;;;;5007285;28;20100;-69
2022/11/10 01:25:13;;;;;;;7.30;2.80;;;;;;;;;;4991967;28;20051;-69
2022/11/10 01:27:40;;;;;;;6.85;2.80;;;;;;;;;;4990898;28;20046;-68
2022/11/10 01:30:07;;;;;;;6.63;2.58;;;;;;;;;;4991716;28;20061;-68
2022/11/10 01:32:33;;;;;;;7.22;2.42;;;;;;;;;;4992036;28;20054;-69
2022/11/10 01:35:00;;;;;;;9.43;2.55;;;;;;;;;;4992088;28;20120;-68
2022/11/10 01:37:27;;;;;;;8.13;2.90;;;;;;;;;;5007392;28;20100;-68
2022/11/10 01:39:53;;;;;;;8.05;2.38;;;;;;;;;;4990215;28;20583;-69
2022/11/10 01:42:28;;;;;;;7.43;2.97;;;;;;;;;;4991057;28;20422;-69
2022/11/10 01:45:22;;;;;;;12.05;3.08;;;;;;;;;;5006097;28;20054;-69
2022/11/10 01:47:50;;;;;;;8.10;2.95;;;;;;;;;;4991502;28;20058;-68
2022/11/10 01:50:17;;;;;;;8.50;2.53;;;;;;;;;;4990599;28;20054;-68
2022/11/10 01:52:46;;;;;;;5.95;3.00;;;;;;;;;;5007543;28;20058;-69
2022/11/10 01:55:12;;;;;;;7.80;2.97;;;;;;;;;;4995559;28;20054;-69
2022/11/10 01:57:39;;;;;;;8.00;2.92;;;;;;;;;;5010913;28;20054;-70
2022/11/10 02:00:07;;;;;;;12.15;3.60;;;;;;;;;;4993890;28;20497;-70
2022/11/10 02:02:53;;;;;;;9.57;3.00;;;;;;;;;;4978226;28;20050;-68
2022/11/10 02:05:21;;;;;;;7.65;3.33;;;;;;;;;;5010686;28;20050;-70
2022/11/10 02:07:49;;;;;;;9.15;2.70;;;;;;;;;;5009933;28;20042;-68
2022/11/10 02:10:17;;;;;;;8.10;2.90;;;;;;;;;;4994104;28;20046;-68
2022/11/10 02:12:43;;;;;;;12.05;3.35;;;;;;;;;;4994526;28;20046;-68
2022/11/10 02:15:12;;;;;;;9.40;4.20;;;;;;;;;;4974766;28;20450;-68
2022/11/10 02:17:39;;;;;;;7.35;3.88;;;;;;;;;;4970405;28;20043;-70
2022/11/10 02:20:09;;;;;;;8.70;3.70;;;;;;;;;;5009401;28;20058;-68
2022/11/10 02:22:35;;;;;;;12.70;3.70;;;;;;;;;;4993968;28;20092;-68
2022/11/10 02:25:03;;;;;;;7.18;3.60;;;;;;;;;;4993882;28;20051;-68
2022/11/10 02:27:30;;;;;;;6.60;3.42;;;;;;;;;;4978300;28;20449;-69
2022/11/10 02:29:57;;;;;;;12.18;3.58;;;;;;;;;;4977134;28;20054;-68
2022/11/10 02:32:23;;;;;;;6.70;3.70;;;;;;;;;;4993891;28;20085;-69
2022/11/10 02:34:50;;;;;;;8.23;4.32;;;;;;;;;;4993487;28;20057;-68
2022/11/10 02:37:16;;;;;;;11.13;3.78;;;;;;;;;;4994166;28;20050;-68
2022/11/10 02:39:43;;;;;;;8.95;4.03;;;;;;;;;;4994177;28;20181;-68
2022/11/10 02:42:09;;;;;;;15.07;4.00;;;;;;;;;;5009802;28;20085;-69
2022/11/10 02:44:37;;;;;;;8.77;3.45;;;;;;;;;;4994869;28;20521;-68
2022/11/10 02:47:03;;;;;;;4.70;3.10;;;;;;;;;;5009483;28;20054;-69
2022/11/10 02:49:30;;;;;;;8.70;3.47;;;;;;;;;;4992704;28;20089;-68
2022/11/10 02:51:56;;;;;;;9.52;3.38;;;;;;;;;;4994760;28;20050;-68
2022/11/10 02:54:23;;;;;;;10.88;3.72;;;;;;;;;;5009738;28;20050;-71
2022/11/10 02:56:50;;;;;;;14.73;4.43;;;;;;;;;;5009703;28;20100;-69
2022/11/10 02:59:16;;;;;;;8.23;3.75;;;;;;;;;;4994035;28;20093;-68
2022/11/10 03:01:43;;;;;;;13.85;3.88;;;;;;;;;;5009409;28;20461;-68
2022/11/10 03:04:10;;;;;;;15.48;4.03;;;;;;;;;;4993398;28;20054;-69
2022/11/10 03:06:36;;;;;;;11.25;4.07;;;;;;;;;;5009269;28;20046;-68
2022/11/10 03:09:04;;;;;;;8.23;4.40;;;;;;;;;;5008438;28;20045;-68
2022/11/10 03:11:30;;;;;;;18.02;4.88;;;;;;;;;;4993294;28;20046;-68
2022/11/10 03:13:58;;;;;;;11.27;4.05;;;;;;;;;;4994428;28;20052;-69
2022/11/10 03:16:28;;;;;;;9.15;3.90;;;;;;;;;;4994174;28;20050;-70
2022/11/10 03:18:54;;;;;;;11.50;4.65;;;;;;;;;;4992556;28;20429;-68
2022/11/10 03:21:21;;;;;;;16.70;5.28;;;;;;;;;;4993997;28;20082;-68
2022/11/10 03:23:47;;;;;;;13.15;4.65;;;;;;;;;;4993986;28;20322;-68
2022/11/10 03:26:14;;;;;;;11.73;5.00;;;;;;;;;;4994523;28;20054;-72
2022/11/10 03:28:41;;;;;;;13.57;5.05;;;;;;;;;;4992378;28;20125;-71
2022/11/10 03:31:07;;;;;;;10.13;4.32;;;;;;;;;;4993810;28;20084;-71
2022/11/10 03:33:34;;;;;;;14.60;4.22;;;;;;;;;;4994120;28;20078;-71
2022/11/10 03:36:01;;;;;;;15.85;4.45;;;;;;;;;;4992747;28;20054;-71
2022/11/10 03:38:27;;;;;;;10.93;4.00;;;;;;;;;;4992192;28;20101;-71
2022/11/10 03:40:54;;;;;;;11.13;4.07;;;;;;;;;;4993638;28;20089;-72
2022/11/10 03:43:40;;;;;;;9.55;3.40;;;;;;;;;;4992610;28;20057;-71
2022/11/10 03:46:07;;;;;;;12.82;3.92;;;;;;;;;;5015224;23;20082;-70
2022/11/10 03:48:34;;;;;;;10.52;3.50;;;;;;;;;;4992090;28;20555;-69
2022/11/10 03:51:01;;;;;;;11.18;4.53;;;;;;;;;;4993880;28;20128;-69
2022/11/10 03:53:27;;;;;;;11.43;4.13;;;;;;;;;;4993748;28;20084;-69
2022/11/10 03:55:54;;;;;;;11.98;3.53;;;;;;;;;;4993589;28;20050;-69
2022/11/10 03:58:20;;;;;;;7.97;3.40;;;;;;;;;;4993231;28;20125;-70
2022/11/10 04:00:47;;;;;;;8.02;3.70;;;;;;;;;;4993393;28;20561;-70
2022/11/10 04:03:14;;;;;;;7.95;3.22;;;;;;;;;;4993757;28;20078;-69
2022/11/10 04:11:10;;;;;;;6.53;3.95;;;;;;;;;;4974126;28;20474;-69
2022/11/10 04:16:21;;;;;;;9.88;3.33;;;;;;;;;;4974927;28;20557;-68
2022/11/10 04:18:48;;;;;;;10.98;3.60;;;;;;;;;;4979292;28;20042;-70
2022/11/10 04:21:15;;;;;;;12.27;4.03;;;;;;;;;;4993441;28;20047;-69
2022/11/10 04:23:41;;;;;;;14.82;4.40;;;;;;;;;;4993272;28;20054;-68
2022/11/10 04:26:29;;;;;;;9.23;3.95;;;;;;;;;;4993669;28;20461;-70
2022/11/10 04:28:57;;;;;;;12.50;4.65;;;;;;;;;;4993001;28;20093;-69
2022/11/10 04:31:25;;;;;;;9.38;3.92;;;;;;;;;;4993240;28;20055;-69
2022/11/10 04:33:52;;;;;;;10.10;3.40;;;;;;;;;;4993436;28;20153;-70
2022/11/10 04:36:21;;;;;;;8.48;3.45;;;;;;;;;;4992689;28;20088;-70
2022/11/10 04:38:48;;;;;;;7.45;3.65;;;;;;;;;;4977207;28;20100;-70
2022/11/10 04:41:15;;;;;;;7.28;3.63;;;;;;;;;;4993988;28;20050;-69
2022/11/10 04:43:42;;;;;;;7.88;3.90;;;;;;;;;;4994088;28;20077;-69
2022/11/10 04:46:34;;;;;;;8.70;3.58;;;;;;;;;;4993410;28;20089;-69
2022/11/10 04:49:01;;;;;;;6.82;3.70;;;;;;;;;;4992652;28;20489;-69
2022/11/10 04:51:33;;;;;;;10.48;4.13;;;;;;;;;;4993115;28;20082;-69
2022/11/10 04:54:00;;;;;;;10.02;4.00;;;;;;;;;;4993104;28;20055;-70
2022/11/10 04:56:26;;;;;;;14.15;5.03;;;;;;;;;;4992661;28;20521;-69
2022/11/10 04:58:53;;;;;;;9.85;4.07;;;;;;;;;;4992354;28;20046;-69
2022/11/10 05:01:25;;;;;;;7.88;3.97;;;;;;;;;;4992701;28;20416;-70
2022/11/10 05:03:52;;;;;;;11.75;3.78;;;;;;;;;;4991684;28;20128;-70
2022/11/10 05:06:19;;;;;;;7.30;3.30;;;;;;;;;;4992502;28;20096;-69
2022/11/10 05:08:46;;;;;;;10.48;3.60;;;;;;;;;;4991846;28;20065;-69
2022/11/10 05:11:13;;;;;;;6.00;3.33;;;;;;;;;;4972915;28;20430;-70
2022/11/10 05:13:40;;;;;;;9.07;3.28;;;;;;;;;;4979861;28;20089;-69
2022/11/10 05:16:07;;;;;;;7.90;4.07;;;;;;;;;;4992640;28;20050;-69
2022/11/10 05:18:33;;;;;;;12.25;3.63;;;;;;;;;;4992042;28;20093;-70
2022/11/10 05:21:00;;;;;;;15.75;4.28;;;;;;;;;;4992609;28;20050;-70
2022/11/10 05:23:40;;;;;;;10.57;3.90;;;;;;;;;;4992451;28;20061;-68
2022/11/10 05:26:12;;;;;;;6.75;3.60;;;;;;;;;;4983313;28;20055;-70
2022/11/10 05:28:39;;;;;;;13.02;4.50;;;;;;;;;;4986804;28;20046;-69
2022/11/10 05:31:06;;;;;;;12.57;4.10;;;;;;;;;;4996614;28;20137;-69
2022/11/10 05:33:33;;;;;;;10.55;4.22;;;;;;;;;;4996589;28;20054;-70
2022/11/10 05:36:00;;;;;;;8.57;3.88;;;;;;;;;;4997209;28;20636;-69
2022/11/10 05:38:27;;;;;;;10.55;4.47;;;;;;;;;;4996058;28;20524;-70
2022/11/10 05:40:54;;;;;;;12.75;5.07;;;;;;;;;;4996674;28;20077;-70
2022/11/10 05:43:20;;;;;;;12.68;4.30;;;;;;;;;;4996427;28;20500;-69
2022/11/10 05:45:48;;;;;;;14.98;4.68;;;;;;;;;;4996460;28;20050;-69
2022/11/10 05:48:14;;;;;;;12.77;4.80;;;;;;;;;;4996278;28;20116;-69
2022/11/10 05:50:42;;;;;;;13.88;5.05;;;;;;;;;;4996120;28;20050;-70
2022/11/10 05:53:09;;;;;;;14.35;5.22;;;;;;;;;;4995379;28;20050;-70
2022/11/10 05:55:35;;;;;;;10.02;5.60;;;;;;;;;;4996208;28;20129;-71
2022/11/10 05:58:02;;;;;;;12.18;5.25;;;;;;;;;;4995719;28;20088;-69
2022/11/10 06:00:29;;;;;;;11.07;5.18;;;;;;;;;;4995410;28;20047;-70
2022/11/10 06:03:16;;;;;;;9.57;5.10;;;;;;;;;;4994782;28;20054;-70
2022/11/10 06:05:43;;;;;;;12.75;4.90;;;;;;;;;;4996302;28;20046;-69
2022/11/10 06:08:10;;;;;;;11.07;5.30;;;;;;;;;;4995261;28;20514;-70
2022/11/10 06:10:37;;;;;;;10.00;4.80;;;;;;;;;;4996036;28;20050;-69
2022/11/10 06:13:04;;;;;;;8.50;4.68;;;;;;;;;;4995852;28;20058;-70
2022/11/10 06:15:31;;;;;;;16.58;5.10;;;;;;;;;;4995863;28;20105;-69
2022/11/10 06:17:57;;;;;;;12.35;4.70;;;;;;;;;;4995324;28;20077;-69
2022/11/10 06:20:24;;;;;;;11.10;5.53;;;;;;;;;;4996401;28;20078;-69
2022/11/10 06:23:00;;;;;;;12.23;5.03;;;;;;;;;;4993632;28;20108;-69
2022/11/10 06:25:28;;;;;;;16.05;5.55;;;;;;;;;;4993837;28;20047;-69
2022/11/10 06:27:55;;;;;;;14.93;4.85;;;;;;;;;;4991784;28;20112;-70
2022/11/10 06:30:22;;;;;;;8.05;5.13;;;;;;;;;;4993129;28;20104;-69
2022/11/10 06:32:49;;;;;;;10.48;4.85;;;;;;;;;;4993559;28;20050;-69
2022/11/10 06:35:15;;;;;;;24.85;5.68;;;;;;;;;;4992888;28;20096;-69
2022/11/10 06:37:42;;;;;;;9.38;5.35;;;;;;;;;;4993063;28;20050;-68
2022/11/10 06:40:09;;;;;;;11.15;6.30;;;;;;;;;;4992557;28;20145;-68
2022/11/10 06:42:36;;;;;;;10.70;5.15;;;;;;;;;;4993373;28;20054;-71
2022/11/10 06:45:03;;;;;;;11.98;5.47;;;;;;;;;;4993472;28;20054;-68
2022/11/10 06:47:30;;;;;;;8.13;5.25;;;;;;;;;;4992506;28;20050;-69
2022/11/10 06:49:57;;;;;;;11.07;5.45;;;;;;;;;;4992374;28;20050;-68
2022/11/10 06:52:23;;;;;;;8.55;5.40;;;;;;;;;;4993236;28;20088;-69
2022/11/10 06:54:50;;;;;;;11.40;6.25;;;;;;;;;;4993083;28;20571;-69
2022/11/10 06:57:17;;;;;;;9.85;5.85;;;;;;;;;;4992799;28;20054;-70
2022/11/10 06:59:43;;;;;;;10.88;6.00;;;;;;;;;;4992277;28;20564;-69
2022/11/10 07:02:12;;;;;;;9.75;5.50;;;;;;;;;;4992706;28;20137;-69
2022/11/10 07:04:39;;;;;;;10.35;6.40;;;;;;;;;;4992866;28;20167;-70
2022/11/10 07:07:06;;;;;;;9.48;5.80;;;;;;;;;;4992869;28;20078;-69
2022/11/10 07:09:32;;;;;;;8.10;5.97;;;;;;;;;;4991971;28;20050;-69
2022/11/10 07:11:59;;;;;;;11.55;5.95;;;;;;;;;;4992742;28;20149;-69
2022/11/10 07:14:25;;;;;;;10.98;6.57;;;;;;;;;;4992444;28;20124;-69
2022/11/10 07:16:52;;;;;;;9.32;6.82;;;;;;;;;;4993907;28;20505;-70
2022/11/10 07:19:18;;;;;;;13.18;6.43;;;;;;;;;;4992590;28;20046;-70
2022/11/10 07:21:45;;;;;;;18.98;8.00;;;;;;;;;;4992875;28;20429;-68
2022/11/10 07:24:12;;;;;;;10.75;6.28;;;;;;;;;;4995776;28;20050;-68
2022/11/10 07:26:38;;;;;;;16.25;6.65;;;;;;;;;;4994460;28;20077;-69
2022/11/10 07:29:05;;;;;;;8.02;6.15;;;;;;;;;;4992519;28;20109;-69
2022/11/10 07:31:31;;;;;;;10.73;7.03;;;;;;;;;;4983561;28;20046;-70
2022/11/10 07:33:58;;;;;;;11.40;6.28;;;;;;;;;;4987901;28;20104;-69
2022/11/10 07:36:27;;;;;;;14.07;7.05;;;;;;;;;;4980864;28;20548;-70
2022/11/10 07:38:54;;;;;;;14.98;6.13;;;;;;;;;;4981457;28;20049;-71
2022/11/10 07:41:21;;;;;;;18.17;7.30;;;;;;;;;;4980221;28;20050;-70
2022/11/10 07:43:48;;;;;;;9.95;6.75;;;;;;;;;;4983148;28;20078;-70
2022/11/10 07:46:14;;;;;;;13.82;6.90;;;;;;;;;;4983827;28;20097;-69
2022/11/10 07:48:41;;;;;;;17.52;6.97;;;;;;;;;;4993228;28;20466;-68
2022/11/10 07:51:07;;;;;;;13.30;6.45;;;;;;;;;;4993319;28;20497;-69
2022/11/10 07:53:34;;;;;;;15.77;8.27;;;;;;;;;;4993858;28;20104;-69
2022/11/10 07:56:01;;;;;;;13.85;7.60;;;;;;;;;;4993723;28;20046;-70
2022/11/10 07:58:29;;;;;;;12.30;6.78;;;;;;;;;;4982059;28;20058;-69
2022/11/10 08:00:55;;;;;;;14.73;6.90;;;;;;;;;;4991519;28;20096;-70
2022/11/10 08:03:22;;;;;;;15.43;6.93;;;;;;;;;;4993723;28;20553;-68
2022/11/10 08:05:49;;;;;;;11.10;6.25;;;;;;;;;;4993669;28;20528;-69
2022/11/10 08:08:16;;;;;;;11.13;5.97;;;;;;;;;;4993021;28;20046;-70
2022/11/10 08:10:43;;;;;;;8.75;4.82;;;;;;;;;;4993527;28;20128;-69
2022/11/10 08:13:11;;;;;;;8.35;4.80;;;;;;;;;;4993650;28;20042;-69
2022/11/10 08:15:38;;;;;;;13.00;4.63;;;;;;;;;;5008056;28;20046;-69
2022/11/10 08:18:14;;;;;;;9.07;4.72;;;;;;;;;;4992222;28;20137;-69
2022/11/10 08:20:41;;;;;;;5.20;4.05;;;;;;;;;;4993352;28;20082;-69
2022/11/10 08:23:07;;;;;;;9.15;4.60;;;;;;;;;;4993629;28;20050;-69
2022/11/10 08:25:35;;;;;;;14.88;5.07;;;;;;;;;;4993546;28;20129;-69
2022/11/10 08:28:04;;;;;;;10.40;4.63;;;;;;;;;;4992872;28;20108;-69
2022/11/10 08:30:31;;;;;;;7.70;4.35;;;;;;;;;;4993110;28;20046;-69
2022/11/10 08:32:58;;;;;;;8.93;4.57;;;;;;;;;;4993336;28;20054;-69
2022/11/10 08:35:27;;;;;;;9.88;4.68;;;;;;;;;;4993005;28;20104;-69
2022/11/10 08:37:54;;;;;;;10.25;4.50;;;;;;;;;;4992637;28;20501;-69
2022/11/10 08:40:21;;;;;;;10.25;4.43;;;;;;;;;;4993222;28;20046;-69
2022/11/10 08:42:56;;;;;;;9.70;5.05;;;;;;;;;;5008466;28;20065;-69
2022/11/10 08:45:23;;;;;;;10.90;4.38;;;;;;;;;;5008256;28;20093;-69
2022/11/10 08:48:00;;;;;;;12.43;4.72;;;;;;;;;;4992145;28;20120;-69
2022/11/10 08:50:27;;;;;;;9.90;4.85;;;;;;;;;;4992727;28;20078;-69
2022/11/10 08:52:54;;;;;;;8.30;3.85;;;;;;;;;;4993262;28;20047;-69
2022/11/10 08:55:21;;;;;;;7.50;4.45;;;;;;;;;;4992834;28;20046;-69
2022/11/10 08:57:47;;;;;;;9.05;4.13;;;;;;;;;;4992360;28;20054;-69
2022/11/10 09:00:15;;;;;;;10.57;4.45;;;;;;;;;;4992574;28;20050;-69
2022/11/10 09:02:42;;;;;;;7.80;4.45;;;;;;;;;;4992910;28;20498;-70
2022/11/10 09:05:08;;;;;;;9.00;4.07;;;;;;;;;;4993459;28;20085;-69
2022/11/10 09:07:42;;;;;;;8.00;4.18;;;;;;;;;;4992323;28;20505;-69
2022/11/10 09:10:09;;;;;;;9.40;3.53;;;;;;;;;;4991839;28;20137;-69
2022/11/10 09:12:36;;;;;;;6.88;3.30;;;;;;;;;;4992483;28;20054;-69
2022/11/10 09:15:03;;;;;;;5.13;3.67;;;;;;;;;;4992648;28;20501;-70
2022/11/10 09:17:31;;;;;;;7.65;3.83;;;;;;;;;;4992439;28;20054;-69
2022/11/10 09:19:57;;;;;;;5.20;3.10;;;;;;;;;;4991996;28;20477;-69
2022/11/10 09:22:24;;;;;;;7.28;2.80;;;;;;;;;;4992597;28;20057;-70
2022/11/10 09:24:50;;;;;;;7.40;2.95;;;;;;;;;;4992328;28;20105;-71
2022/11/10 09:27:17;;;;;;;8.73;3.05;;;;;;;;;;4992287;28;20085;-69
2022/11/10 09:29:44;;;;;;;5.95;3.00;;;;;;;;;;4991727;28;20089;-70
2022/11/10 09:32:10;;;;;;;5.40;2.47;;;;;;;;;;4992335;28;20140;-69
2022/11/10 09:34:37;;;;;;;7.07;2.75;;;;;;;;;;4992265;28;20510;-69
2022/11/10 09:37:03;;;;;;;6.80;2.58;;;;;;;;;;4992290;28;20055;-69
2022/11/10 09:39:30;;;;;;;7.88;2.85;;;;;;;;;;4991622;28;20089;-69
2022/11/10 09:41:56;;;;;;;6.28;2.80;;;;;;;;;;4991839;28;20047;-69
2022/11/10 09:44:23;;;;;;;10.55;4.93;;;;;;;;;;5007032;28;20054;-68
2022/11/10 09:46:57;;;;;;;6.10;2.20;;;;;;;;;;5013773;23;20386;-66
2022/11/10 09:49:29;;;;;;;6.85;2.50;;;;;;;;;;4990694;28;20081;-66
2022/11/10 09:51:57;;;;;;;6.20;2.80;;;;;;;;;;4992448;28;20133;-67
2022/11/10 09:54:44;;;;;;;4.40;2.33;;;;;;;;;;5011848;28;20165;-66
2022/11/10 09:57:15;;;;;;;6.03;2.08;;;;;;;;;;5005822;28;20057;-66
2022/11/10 09:59:42;;;;;;;7.18;2.10;;;;;;;;;;4991849;28;20058;-69
2022/11/10 10:02:12;;;;;;;5.15;1.92;;;;;;;;;;5007200;28;20054;-70
2022/11/10 10:04:50;;;;;;;7.18;2.08;;;;;;;;;;4983461;28;20047;-70
2022/11/10 10:07:31;;;;;;;6.82;1.73;;;;;;;;;;4978603;28;20125;-71
2022/11/10 10:10:19;;;;;;;5.20;1.73;;;;;;;;;;4968265;28;20404;-73
2022/11/10 10:13:04;;;;;;;6.20;1.83;;;;;;;;;;4960576;28;20106;-72
2022/11/10 10:15:34;;;;;;;3.55;1.70;;;;;;;;;;4963974;28;20522;-73
2022/11/10 10:18:06;;;;;;;8.50;2.03;;;;;;;;;;4960824;28;20421;-71
2022/11/10 10:20:45;;;;;;;6.15;1.60;;;;;;;;;;4966701;28;20042;-71
2022/11/10 10:23:17;;;;;;;4.30;1.60;;;;;;;;;;4962002;28;20046;-69
2022/11/10 10:25:44;;;;;;;4.53;1.63;;;;;;;;;;4961347;28;20182;-68
2022/11/10 10:28:17;;;;;;;7.63;2.28;;;;;;;;;;4961990;28;20102;-68
2022/11/10 10:30:44;;;;;;;5.25;1.80;;;;;;;;;;4959689;28;20134;-69
2022/11/10 10:33:21;;;;;;;2.97;1.15;;;;;;;;;;4962321;28;20094;-68
2022/11/10 10:35:49;;;;;;;4.88;1.20;;;;;;;;;;4960895;28;20471;-68
2022/11/10 10:38:21;;;;;;;3.90;1.10;;;;;;;;;;4959220;28;20660;-69
2022/11/10 10:40:50;;;;;;;3.60;0.90;;;;;;;;;;4963215;28;20516;-69
2022/11/10 10:43:16;;;;;;;3.10;0.90;;;;;;;;;;4960685;28;20083;-68
2022/11/10 10:45:43;;;;;;;5.40;1.40;;;;;;;;;;4962384;28;20089;-69
2022/11/10 10:48:27;;;;;;;6.68;1.75;;;;;;;;;;4962450;28;20145;-69
2022/11/10 10:50:53;;;;;;;4.88;1.45;;;;;;;;;;4958128;28;20083;-67
2022/11/10 10:53:24;;;;;;;5.43;0.98;;;;;;;;;;4960797;28;20576;-68
2022/11/10 10:56:03;;;;;;;7.70;1.20;;;;;;;;;;4961384;28;20477;-69
2022/11/10 10:58:48;;;;;;;3.67;1.30;;;;;;;;;;4957868;28;20067;-69
2022/11/10 11:01:14;;;;;;;3.05;0.63;;;;;;;;;;4971503;28;20054;-70
2022/11/10 11:03:43;;;;;;;3.50;0.70;;;;;;;;;;4964630;28;20051;-68
2022/11/10 11:06:17;;;;;;;1.85;0.70;;;;;;;;;;4971772;28;20407;-68
2022/11/10 11:08:57;;;;;;;3.20;0.80;;;;;;;;;;4965101;28;20047;-68
2022/11/10 11:11:31;;;;;;;2.15;0.88;;;;;;;;;;4962577;28;20054;-67
2022/11/10 11:14:17;;;;;;;2.70;0.57;;;;;;;;;;4960288;28;20058;-68
2022/11/10 11:16:48;;;;;;;2.60;0.60;;;;;;;;;;4964819;28;20043;-68
2022/11/10 11:19:15;;;;;;;1.25;0.52;;;;;;;;;;4960412;28;20047;-68
2022/11/10 11:22:21;;;;;;;5.30;1.00;;;;;;;;;;4961611;28;20101;-69
2022/11/10 11:25:00;;;;;;;2.53;0.77;;;;;;;;;;4962308;28;20117;-68
2022/11/10 11:27:30;;;;;;;3.15;0.77;;;;;;;;;;4958626;28;20172;-70
2022/11/10 11:30:15;;;;;;;2.88;0.80;;;;;;;;;;4964179;28;20047;-70
2022/11/10 11:32:49;;;;;;;5.05;0.70;;;;;;;;;;4970301;28;20102;-70
2022/11/10 11:35:40;;;;;;;3.35;0.80;;;;;;;;;;4960453;28;20094;-70
2022/11/10 11:38:34;;;;;;;1.27;0.57;;;;;;;;;;4959132;28;20055;-72
2022/11/10 11:41:26;;;;;;;3.53;0.60;;;;;;;;;;4960479;28;20070;-71
2022/11/10 11:44:02;;;;;;;2.78;0.93;;;;;;;;;;4960437;28;20098;-70
2022/11/10 11:49:36;;;;;;;3.92;1.10;;;;;;;;;;5058209;28;20774;-72
2022/11/10 11:52:37;;;;;;;3.13;0.90;;;;;;;;;;5047861;28;20052;-73
2022/11/10 11:55:24;;;;;;;7.22;1.55;;;;;;;;;;5044644;28;20048;-72
2022/11/10 11:58:09;;;;;;;2.83;0.60;;;;;;;;;;5045689;28;20093;-71
2022/11/10 12:01:17;;;;;;;3.28;1.10;;;;;;;;;;5046406;28;20598;-71
2022/11/10 12:04:20;;;;;;;3.15;0.80;;;;;;;;;;5042660;28;20085;-72
2022/11/10 12:06:59;;;;;;;3.05;0.77;;;;;;;;;;5045995;28;20073;-71
2022/11/10 12:10:02;;;;;;;3.70;0.77;;;;;;;;;;5046288;28;20052;-72
2022/11/10 12:12:57;;;;;;;3.70;0.75;;;;;;;;;;5041689;28;20049;-71
2022/11/10 12:15:26;;;;;;;3.67;0.93;;;;;;;;;;5045693;28;20140;-72
2022/11/10 12:18:11;;;;;;;5.32;0.98;;;;;;;;;;5046305;28;20493;-72
2022/11/10 12:20:40;;;;;;;4.32;1.10;;;;;;;;;;5039772;28;20135;-72
2022/11/10 12:23:28;;;;;;;4.22;1.00;;;;;;;;;;5047143;28;20053;-71
2022/11/10 12:26:39;;;;;;;5.07;1.15;;;;;;;;;;5046207;28;20095;-71
2022/11/10 12:29:25;;;;;;;1.67;0.70;;;;;;;;;;5043562;28;20083;-72
2022/11/10 12:31:54;;;;;;;2.53;0.82;;;;;;;;;;5044764;28;20076;-71
2022/11/10 12:34:44;;;;;;;4.22;1.00;;;;;;;;;;5044592;28;20462;-71
2022/11/10 12:37:17;;;;;;;2.80;0.43;;;;;;;;;;5041355;28;20088;-71
2022/11/10 12:40:15;;;;;;;2.35;0.80;;;;;;;;;;5037978;28;20068;-69
2022/11/10 12:42:43;;;;;;;3.08;0.80;;;;;;;;;;5061333;28;20249;-68
2022/11/10 12:45:23;;;;;;;2.80;0.68;;;;;;;;;;5051808;28;20056;-68
2022/11/10 12:47:49;;;;;;;3.28;1.00;;;;;;;;;;5057342;28;20029;-68
2022/11/10 12:50:47;;;;;;;2.38;0.60;;;;;;;;;;5071949;28;20049;-69
2022/11/10 12:53:19;;;;;;;2.78;0.70;;;;;;;;;;5067714;28;20036;-68
2022/11/10 12:55:59;;;;;;;2.00;0.80;;;;;;;;;;5064795;28;20032;-69
2022/11/10 12:58:26;;;;;;;2.03;0.68;;;;;;;;;;5063458;28;20072;-68
2022/11/10 13:00:55;;;;;;;2.05;0.63;;;;;;;;;;5055458;28;20037;-68
2022/11/10 13:03:33;;;;;;;2.17;0.63;;;;;;;;;;5056307;28;20041;-68
2022/11/10 13:06:03;;;;;;;4.00;1.00;;;;;;;;;;5050407;28;20025;-68
2022/11/10 13:08:41;;;;;;;3.78;1.23;;;;;;;;;;5054224;28;20056;-68
2022/11/10 13:11:10;;;;;;;2.65;0.93;;;;;;;;;;5054892;28;20052;-68
2022/11/10 13:13:46;;;;;;;7.35;1.35;;;;;;;;;;5054527;28;20030;-68
2022/11/10 13:16:39;;;;;;;3.70;0.65;;;;;;;;;;5052857;28;20053;-67
2022/11/10 13:19:10;;;;;;;2.85;0.73;;;;;;;;;;5034706;28;20089;-70
2022/11/10 13:21:49;;;;;;;1.77;0.68;;;;;;;;;;5027508;28;20085;-68
2022/11/10 13:24:35;;;;;;;3.80;0.90;;;;;;;;;;5030853;28;20095;-69
2022/11/10 13:27:03;;;;;;;2.85;0.80;;;;;;;;;;5031026;28;20152;-69
2022/11/10 13:29:42;;;;;;;1.98;0.50;;;;;;;;;;5031533;28;20045;-71
2022/11/10 13:32:27;;;;;;;2.53;0.85;;;;;;;;;;5032706;28;20103;-66
2022/11/10 13:34:54;;;;;;;2.53;0.75;;;;;;;;;;5038423;28;20084;-68
2022/11/10 13:37:43;;;;;;;1.73;0.80;;;;;;;;;;5014626;28;20511;-69
2022/11/10 13:40:19;;;;;;;2.90;0.60;;;;;;;;;;5037700;28;20057;-75
2022/11/10 13:42:58;;;;;;;2.05;0.75;;;;;;;;;;5033042;28;20061;-68
2022/11/10 13:45:38;;;;;;;3.55;1.00;;;;;;;;;;5032433;28;20515;-70
2022/11/10 13:48:24;;;;;;;3.67;0.82;;;;;;;;;;5031349;28;20091;-70
2022/11/10 13:50:57;;;;;;;3.63;0.73;;;;;;;;;;5007122;28;20089;-68
2022/11/10 13:54:05;;;;;;;2.30;0.95;;;;;;;;;;5024504;28;20053;-69
2022/11/10 13:56:38;;;;;;;2.40;1.00;;;;;;;;;;5027526;28;20496;-68
2022/11/10 13:59:20;;;;;;;6.18;1.15;;;;;;;;;;5022813;28;20081;-72
2022/11/10 14:01:47;;;;;;;4.07;0.70;;;;;;;;;;5026111;28;20103;-65
2022/11/10 14:04:34;;;;;;;3.97;1.00;;;;;;;;;;5030290;28;20053;-73
2022/11/10 14:07:00;;;;;;;4.78;1.15;;;;;;;;;;5014041;28;20128;-75
2022/11/10 14:09:32;;;;;;;4.63;1.00;;;;;;;;;;5021920;28;20048;-75
2022/11/10 14:12:03;;;;;;;2.33;0.70;;;;;;;;;;5022740;28;20049;-74
2022/11/10 14:14:45;;;;;;;3.72;0.80;;;;;;;;;;4999874;28;20046;-73
2022/11/10 14:17:18;;;;;;;3.60;0.77;;;;;;;;;;5022826;28;20432;-73
2022/11/10 14:19:44;;;;;;;;;;;;;;;;;;5010860;28;20058;-68
2022/11/10 14:22:33;;;;;;;3.78;0.88;;;;;;;;;;5028053;28;19951;-68
2022/11/10 14:25:23;;;;;;;3.58;0.80;;;;;;;;;;4996717;28;20096;-69
2022/11/10 14:27:50;;;;;;;4.68;1.13;;;;;;;;;;5024992;28;20052;-69
2022/11/10 14:30:24;;;;;;;4.05;1.30;;;;;;;;;;5020135;28;20076;-70
2022/11/10 14:32:59;;;;;;;5.10;1.10;;;;;;;;;;5018752;28;20045;-69
2022/11/10 14:35:31;;;;;;;3.38;0.93;;;;;;;;;;5021082;28;20492;-69
2022/11/10 14:38:03;;;;;;;3.20;0.90;;;;;;;;;;5001229;28;20119;-69
2022/11/10 14:40:29;;;;;;;2.42;0.80;;;;;;;;;;5013800;28;20206;-70
2022/11/10 14:42:56;;;;;;;2.85;1.10;;;;;;;;;;5019047;28;20045;-70
2022/11/10 14:45:24;;;;;;;1.70;0.60;;;;;;;;;;5018926;28;20049;-70
2022/11/10 14:47:52;;;;;;;2.47;0.80;;;;;;;;;;5014540;28;20050;-69
2022/11/10 14:50:24;;;;;;;2.40;0.98;;;;;;;;;;5019072;28;20500;-68
2022/11/10 14:52:54;;;;;;;2.83;0.88;;;;;;;;;;5028250;28;20104;-70
2022/11/10 14:55:27;;;;;;;3.70;1.15;;;;;;;;;;5021303;28;20424;-69
2022/11/10 14:58:04;;;;;;;;;;;;;;;;;;5028217;28;20081;-70
2022/11/10 15:00:34;;;;;;;1.45;0.70;;;;;;;;;;5024609;28;19956;-71
2022/11/10 15:03:01;;;;;;;3.60;1.33;;;;;;;;;;5030036;28;20107;-69
2022/11/10 15:05:29;;;;;;;2.25;0.80;;;;;;;;;;5013271;28;20151;-70
2022/11/10 15:07:56;;;;;;;2.78;0.93;;;;;;;;;;5005480;28;20080;-71
2022/11/10 15:10:40;;;;;;;3.42;0.90;;;;;;;;;;5030116;28;20120;-70
2022/11/10 15:13:13;;;;;;;5.30;1.20;;;;;;;;;;5029158;28;20087;-69
2022/11/10 15:15:40;;;;;;;6.63;1.45;;;;;;;;;;5023563;28;20076;-70
2022/11/10 15:18:25;;;;;;;7.10;1.67;;;;;;;;;;5029701;28;20076;-70